South Lancaster, Massachusetts
Current Conditions -  °F | °C
As of 6:10 PM on Wednesday 22 Oct 2014 (Local Time) from KFIT Reporting Station
Light Rain Light Rain  
Wind Chill: 44°   Ceiling: 1100
Heat Index: 49°   Visibility: 2.5mi
Dew Point: 46°   Wind: 13mph
Humidity: 90%   Direction: 20°NNE
Pressure: 29.95"   Gusts: 20mph
Location:  42.44°N, 71.69°W
Report Text: KFIT 222210Z AUTO 02011G17KT 2 1/2SM -RA BR BKN011 OVC016 09/08 A2995 RMK AO2 P0001 T00940078
Loading
Personal Weather Stations






























Interactive Weather Map
Tropical Storm Tracking
New forecast layout! Learn more

10-Day Weather Forecast

Advertisements
Track Severe Weather on mobile